Time;durP1;ratioP1;P1;durP2;ratioP2;P2;SDS_P1;SDS_P2;PMS_P1;PMS_P2;Temp;Humidity;BMP_temperature;BMP_pressure;BME280_temperature;BME280_humidity;BME280_pressure;Samples;Min_cycle;Max_cycle;Signal;HPM_P1;HPM_P2
2022/11/28 00:00:28;;;;;;;19.20;15.63;;;;;;;;;;5040616;28;20044;-76
2022/11/28 00:02:54;;;;;;;19.80;15.13;;;;;;;;;;5049146;28;20265;-76
2022/11/28 00:05:20;;;;;;;17.45;14.07;;;;;;;;;;5050326;28;20041;-76
2022/11/28 00:07:46;;;;;;;18.27;15.63;;;;;;;;;;5080135;28;20051;-76
2022/11/28 00:10:12;;;;;;;19.50;15.70;;;;;;;;;;5047476;28;20396;-76
2022/11/28 00:12:38;;;;;;;18.95;15.77;;;;;;;;;;5044589;28;20039;-76
2022/11/28 00:15:05;;;;;;;19.90;16.80;;;;;;;;;;5044158;28;20113;-76
2022/11/28 00:17:31;;;;;;;21.02;16.95;;;;;;;;;;5079661;28;21634;-76
2022/11/28 00:19:58;;;;;;;20.92;16.08;;;;;;;;;;5060863;28;20488;-76
2022/11/28 00:22:26;;;;;;;22.98;17.80;;;;;;;;;;5043629;28;20177;-76
2022/11/28 00:24:52;;;;;;;20.50;17.23;;;;;;;;;;5063315;28;20119;-76
2022/11/28 00:27:18;;;;;;;18.48;15.35;;;;;;;;;;5059822;28;20527;-76
2022/11/28 00:29:44;;;;;;;18.13;15.55;;;;;;;;;;5064865;28;20499;-76
2022/11/28 00:32:10;;;;;;;19.90;16.45;;;;;;;;;;5043351;28;20153;-76
2022/11/28 00:34:36;;;;;;;17.65;14.82;;;;;;;;;;5082177;28;20124;-76
2022/11/28 00:37:02;;;;;;;18.85;15.65;;;;;;;;;;5050076;28;20144;-75
2022/11/28 00:39:28;;;;;;;19.67;16.33;;;;;;;;;;5068009;28;20543;-76
2022/11/28 00:41:54;;;;;;;18.27;15.65;;;;;;;;;;5049147;28;20496;-76
2022/11/28 00:44:23;;;;;;;20.23;16.10;;;;;;;;;;5053375;28;20056;-76
2022/11/28 00:46:49;;;;;;;19.25;15.68;;;;;;;;;;5069631;28;20163;-76
2022/11/28 00:49:15;;;;;;;20.38;16.17;;;;;;;;;;5064200;28;20071;-75
2022/11/28 00:51:41;;;;;;;19.45;16.55;;;;;;;;;;5078386;28;20129;-76
2022/11/28 00:54:07;;;;;;;23.35;15.88;;;;;;;;;;5051367;28;20040;-76
2022/11/28 00:56:35;;;;;;;18.90;15.82;;;;;;;;;;5069726;28;20036;-76
2022/11/28 00:59:01;;;;;;;20.38;16.40;;;;;;;;;;5051373;28;20463;-75
2022/11/28 01:01:32;;;;;;;19.52;15.60;;;;;;;;;;5051731;28;20051;-76
2022/11/28 01:03:59;;;;;;;20.35;16.35;;;;;;;;;;5068462;28;20033;-76
2022/11/28 01:06:30;;;;;;;23.00;18.23;;;;;;;;;;5062007;28;20136;-76
2022/11/28 01:08:57;;;;;;;19.63;15.95;;;;;;;;;;5073459;28;20111;-76
2022/11/28 01:11:23;;;;;;;21.73;16.08;;;;;;;;;;5074060;28;20097;-76
2022/11/28 01:13:49;;;;;;;20.33;16.45;;;;;;;;;;5055438;28;20052;-76
2022/11/28 01:16:18;;;;;;;19.75;15.50;;;;;;;;;;5073730;28;20049;-75
2022/11/28 01:18:44;;;;;;;18.35;15.52;;;;;;;;;;5071578;28;20123;-76
2022/11/28 01:21:10;;;;;;;18.02;15.75;;;;;;;;;;5071132;28;20056;-75
2022/11/28 01:23:36;;;;;;;18.90;14.80;;;;;;;;;;5046558;28;20040;-75
2022/11/28 01:26:03;;;;;;;18.38;15.63;;;;;;;;;;5050713;28;20041;-75
2022/11/28 01:28:29;;;;;;;17.45;15.07;;;;;;;;;;5055464;28;20066;-76
2022/11/28 01:30:55;;;;;;;17.95;15.05;;;;;;;;;;5052804;28;20403;-75
2022/11/28 01:33:21;;;;;;;18.20;15.63;;;;;;;;;;5060205;28;20044;-76
2022/11/28 01:35:54;;;;;;;19.88;16.38;;;;;;;;;;5055065;28;20097;-76
2022/11/28 01:38:21;;;;;;;19.30;16.27;;;;;;;;;;5049832;28;20052;-76
2022/11/28 01:40:47;;;;;;;20.27;15.65;;;;;;;;;;5081157;28;20067;-76
2022/11/28 01:43:13;;;;;;;20.35;16.65;;;;;;;;;;5052596;28;20052;-76
2022/11/28 01:45:39;;;;;;;23.17;17.58;;;;;;;;;;5056090;28;20040;-76
2022/11/28 01:48:06;;;;;;;21.77;17.50;;;;;;;;;;5071271;28;20093;-75
2022/11/28 01:50:32;;;;;;;20.20;16.85;;;;;;;;;;5066548;28;20040;-75
2022/11/28 01:53:01;;;;;;;24.50;17.88;;;;;;;;;;5070154;28;20044;-75
2022/11/28 01:55:31;;;;;;;21.85;17.20;;;;;;;;;;5057111;28;20040;-75
2022/11/28 01:57:57;;;;;;;21.20;16.90;;;;;;;;;;5071240;28;20041;-76
2022/11/28 02:00:23;;;;;;;22.00;17.48;;;;;;;;;;5066971;28;20272;-76
2022/11/28 02:02:52;;;;;;;20.58;17.10;;;;;;;;;;5051113;28;20041;-76
2022/11/28 02:05:19;;;;;;;21.20;17.42;;;;;;;;;;5072907;28;20040;-76
2022/11/28 02:07:45;;;;;;;21.40;17.52;;;;;;;;;;5079093;28;20040;-76
2022/11/28 02:10:14;;;;;;;20.48;16.40;;;;;;;;;;5052523;28;20105;-76
2022/11/28 02:13:00;;;;;;;20.30;17.48;;;;;;;;;;5070416;28;20048;-76
2022/11/28 02:15:31;;;;;;;22.40;17.70;;;;;;;;;;5056203;28;20381;-76
2022/11/28 02:18:06;;;;;;;20.40;16.17;;;;;;;;;;5056857;28;20142;-76
2022/11/28 02:20:38;;;;;;;19.63;16.70;;;;;;;;;;5067206;28;20048;-76
2022/11/28 02:23:10;;;;;;;19.55;16.77;;;;;;;;;;5052431;28;20514;-76
2022/11/28 02:25:39;;;;;;;18.23;16.23;;;;;;;;;;5067453;28;20063;-76
2022/11/28 02:28:23;;;;;;;20.80;17.08;;;;;;;;;;5059894;28;20036;-76
2022/11/28 02:31:08;;;;;;;18.25;15.10;;;;;;;;;;5075776;28;20077;-75
2022/11/28 02:33:46;;;;;;;20.40;16.50;;;;;;;;;;5067500;28;20131;-75
2022/11/28 02:36:12;;;;;;;17.15;15.20;;;;;;;;;;5067836;28;20791;-76
2022/11/28 02:38:46;;;;;;;17.98;15.27;;;;;;;;;;5050474;28;20048;-75
2022/11/28 02:41:34;;;;;;;18.75;16.05;;;;;;;;;;5072069;28;20052;-75
2022/11/28 02:44:09;;;;;;;18.33;15.88;;;;;;;;;;5058205;28;20087;-75
2022/11/28 02:46:53;;;;;;;19.48;15.52;;;;;;;;;;5062870;28;20044;-76
2022/11/28 02:49:23;;;;;;;18.05;15.15;;;;;;;;;;5065217;28;20170;-76
2022/11/28 02:51:55;;;;;;;19.23;16.17;;;;;;;;;;5054636;28;20076;-76
2022/11/28 02:54:21;;;;;;;18.27;15.95;;;;;;;;;;5073278;28;20059;-75
2022/11/28 02:56:48;;;;;;;18.98;15.80;;;;;;;;;;5081033;28;20044;-75
2022/11/28 02:59:25;;;;;;;20.30;16.35;;;;;;;;;;5058420;28;20044;-75
2022/11/28 03:01:51;;;;;;;20.30;16.23;;;;;;;;;;5047133;28;20048;-76
2022/11/28 03:04:31;;;;;;;18.55;15.65;;;;;;;;;;5075053;28;20032;-75
2022/11/28 03:07:09;;;;;;;19.35;15.88;;;;;;;;;;5078301;28;20125;-76
2022/11/28 03:09:47;;;;;;;18.10;14.98;;;;;;;;;;5071033;28;20496;-76
2022/11/28 03:12:13;;;;;;;18.15;15.00;;;;;;;;;;5086832;28;20416;-76
2022/11/28 03:14:49;;;;;;;17.38;15.25;;;;;;;;;;5059071;28;20051;-76
2022/11/28 03:17:15;;;;;;;17.83;15.25;;;;;;;;;;5067180;28;20040;-76
2022/11/28 03:19:44;;;;;;;16.85;14.32;;;;;;;;;;5051884;28;20040;-76
2022/11/28 03:22:16;;;;;;;15.88;13.98;;;;;;;;;;5052712;28;20052;-76
2022/11/28 03:24:42;;;;;;;16.45;14.10;;;;;;;;;;5051612;28;20495;-76
2022/11/28 03:27:14;;;;;;;17.20;13.77;;;;;;;;;;5068645;28;20048;-76
2022/11/28 03:29:48;;;;;;;17.55;14.55;;;;;;;;;;5086084;28;20036;-76
2022/11/28 03:32:31;;;;;;;16.95;14.07;;;;;;;;;;5070679;28;20075;-76
2022/11/28 03:35:00;;;;;;;16.15;13.32;;;;;;;;;;5049904;28;20170;-76
2022/11/28 03:37:28;;;;;;;17.00;14.32;;;;;;;;;;5051908;28;20044;-76
2022/11/28 03:39:58;;;;;;;16.73;13.70;;;;;;;;;;5050599;28;20063;-75
2022/11/28 03:42:28;;;;;;;17.95;13.95;;;;;;;;;;5052799;28;20056;-76
2022/11/28 03:45:04;;;;;;;17.00;13.75;;;;;;;;;;5085680;28;20127;-75
2022/11/28 03:47:33;;;;;;;16.95;13.70;;;;;;;;;;5052228;28;20052;-75
2022/11/28 03:50:02;;;;;;;18.50;13.65;;;;;;;;;;5085338;28;20118;-75
2022/11/28 03:52:31;;;;;;;16.92;13.23;;;;;;;;;;5075241;28;20173;-76
2022/11/28 03:55:10;;;;;;;17.15;13.57;;;;;;;;;;5049703;28;20491;-76
2022/11/28 03:57:41;;;;;;;18.38;14.30;;;;;;;;;;5061055;28;20074;-76
2022/11/28 04:00:09;;;;;;;17.60;13.45;;;;;;;;;;5066134;28;20044;-76
2022/11/28 04:02:44;;;;;;;17.48;12.25;;;;;;;;;;5070271;28;20076;-76
2022/11/28 04:05:27;;;;;;;16.80;12.10;;;;;;;;;;5045835;28;20497;-76
2022/11/28 04:07:58;;;;;;;19.45;13.55;;;;;;;;;;5043750;28;20175;-76
2022/11/28 04:10:31;;;;;;;16.42;12.18;;;;;;;;;;5051631;28;20127;-75
2022/11/28 04:13:06;;;;;;;16.20;11.95;;;;;;;;;;5069771;28;20048;-75
2022/11/28 04:15:32;;;;;;;16.83;12.32;;;;;;;;;;5053088;28;20036;-76
2022/11/28 04:18:06;;;;;;;16.30;11.90;;;;;;;;;;5084758;28;20032;-76
2022/11/28 04:20:38;;;;;;;15.70;11.70;;;;;;;;;;5057686;28;20105;-76
2022/11/28 04:23:06;;;;;;;17.40;12.00;;;;;;;;;;5036879;28;20107;-75
2022/11/28 04:25:35;;;;;;;17.23;12.70;;;;;;;;;;5044994;28;20037;-76
2022/11/28 04:28:04;;;;;;;17.27;12.60;;;;;;;;;;5052787;28;20060;-75
2022/11/28 04:30:30;;;;;;;19.20;13.32;;;;;;;;;;5052829;28;20048;-75
2022/11/28 04:32:59;;;;;;;20.02;12.15;;;;;;;;;;5069565;28;20090;-76
2022/11/28 04:35:37;;;;;;;17.45;12.43;;;;;;;;;;5069459;28;20059;-76
2022/11/28 04:38:04;;;;;;;20.27;13.00;;;;;;;;;;5065804;28;20051;-76
2022/11/28 04:40:32;;;;;;;20.38;12.77;;;;;;;;;;5063030;28;20076;-75
2022/11/28 04:43:00;;;;;;;19.00;13.48;;;;;;;;;;5072489;28;20411;-75
2022/11/28 04:45:37;;;;;;;20.00;14.02;;;;;;;;;;5080254;28;20515;-76
2022/11/28 04:48:03;;;;;;;18.75;13.07;;;;;;;;;;5058983;28;20041;-75
2022/11/28 04:50:31;;;;;;;17.75;12.38;;;;;;;;;;5050796;28;20433;-76
2022/11/28 04:53:01;;;;;;;17.55;12.60;;;;;;;;;;5058929;28;20043;-76
2022/11/28 04:55:30;;;;;;;17.92;12.38;;;;;;;;;;5061918;28;20079;-76
2022/11/28 04:58:08;;;;;;;15.32;12.13;;;;;;;;;;5071139;28;20098;-75
2022/11/28 05:00:36;;;;;;;17.92;12.02;;;;;;;;;;5079634;28;20434;-76
2022/11/28 05:03:02;;;;;;;15.32;11.10;;;;;;;;;;5054229;28;20051;-76
2022/11/28 05:05:29;;;;;;;15.18;11.35;;;;;;;;;;5077122;28;20094;-76
2022/11/28 05:07:56;;;;;;;15.25;11.00;;;;;;;;;;5071197;28;20496;-76
2022/11/28 05:10:22;;;;;;;13.73;10.18;;;;;;;;;;5069516;28;20047;-76
2022/11/28 05:12:48;;;;;;;15.25;10.80;;;;;;;;;;5071518;28;20040;-76
2022/11/28 05:15:17;;;;;;;14.90;10.55;;;;;;;;;;5044283;28;20575;-76
2022/11/28 05:17:45;;;;;;;14.35;10.45;;;;;;;;;;5075276;28;20056;-76
2022/11/28 05:20:11;;;;;;;13.38;10.13;;;;;;;;;;5064474;28;20488;-76
2022/11/28 05:22:37;;;;;;;12.90;9.88;;;;;;;;;;5077830;28;20044;-76
2022/11/28 05:25:03;;;;;;;15.38;11.48;;;;;;;;;;5056943;28;20069;-76
2022/11/28 05:27:35;;;;;;;15.30;11.73;;;;;;;;;;5077613;28;20040;-75
2022/11/28 05:30:02;;;;;;;16.73;12.15;;;;;;;;;;5065235;28;20044;-76
2022/11/28 05:32:31;;;;;;;17.08;12.00;;;;;;;;;;5072287;28;20071;-76
2022/11/28 05:35:00;;;;;;;15.77;11.95;;;;;;;;;;5073825;28;20072;-76
2022/11/28 05:37:26;;;;;;;15.48;11.77;;;;;;;;;;5055982;28;20040;-76
2022/11/28 05:39:52;;;;;;;16.45;11.73;;;;;;;;;;5058307;28;20113;-76
2022/11/28 05:42:18;;;;;;;17.13;12.68;;;;;;;;;;5054974;28;20136;-75
2022/11/28 05:44:44;;;;;;;18.08;12.50;;;;;;;;;;5077245;28;20049;-76
2022/11/28 05:47:10;;;;;;;17.60;12.45;;;;;;;;;;5074030;28;20048;-76
2022/11/28 05:49:36;;;;;;;17.15;12.65;;;;;;;;;;5074240;28;20136;-76
2022/11/28 05:52:02;;;;;;;15.60;11.77;;;;;;;;;;5071440;28;20128;-76
2022/11/28 05:54:29;;;;;;;16.00;10.55;;;;;;;;;;5053065;28;20085;-76
2022/11/28 05:56:55;;;;;;;14.30;10.27;;;;;;;;;;5060814;28;20407;-76
2022/11/28 05:59:21;;;;;;;15.20;10.80;;;;;;;;;;5078169;28;20101;-76
2022/11/28 06:01:47;;;;;;;12.63;10.40;;;;;;;;;;5049772;28;20072;-76
2022/11/28 06:04:13;;;;;;;15.32;11.20;;;;;;;;;;5063454;28;20041;-76
2022/11/28 06:06:39;;;;;;;14.10;10.73;;;;;;;;;;5052939;28;20135;-76
2022/11/28 06:09:11;;;;;;;15.20;11.48;;;;;;;;;;5053588;28;20127;-76
2022/11/28 06:11:37;;;;;;;14.07;10.85;;;;;;;;;;5068394;28;20412;-76
2022/11/28 06:14:03;;;;;;;16.42;12.65;;;;;;;;;;5074867;28;20128;-76
2022/11/28 06:16:30;;;;;;;15.55;11.35;;;;;;;;;;5052335;28;20040;-76
2022/11/28 06:18:58;;;;;;;14.70;10.32;;;;;;;;;;5067695;28;20062;-75
2022/11/28 06:21:24;;;;;;;13.93;9.88;;;;;;;;;;5065925;28;20083;-76
2022/11/28 06:23:51;;;;;;;16.17;10.77;;;;;;;;;;5068229;28;20070;-76
2022/11/28 06:26:18;;;;;;;16.30;11.07;;;;;;;;;;5053046;28;20048;-76
2022/11/28 06:28:45;;;;;;;15.98;10.88;;;;;;;;;;5067066;28;20051;-76
2022/11/28 06:31:11;;;;;;;18.30;11.40;;;;;;;;;;5048481;28;20041;-76
2022/11/28 06:33:38;;;;;;;16.23;11.65;;;;;;;;;;5052074;28;20052;-75
2022/11/28 06:36:05;;;;;;;19.65;13.20;;;;;;;;;;5071228;28;20083;-75
2022/11/28 06:38:31;;;;;;;19.13;12.50;;;;;;;;;;5048103;28;20063;-76
2022/11/28 06:40:57;;;;;;;20.45;12.85;;;;;;;;;;5069535;28;20144;-76
2022/11/28 06:43:23;;;;;;;20.67;14.55;;;;;;;;;;5051831;28;20052;-75
2022/11/28 06:45:49;;;;;;;24.25;16.42;;;;;;;;;;5087282;28;20052;-76
2022/11/28 06:48:15;;;;;;;24.40;17.45;;;;;;;;;;5055983;28;20105;-75
2022/11/28 06:50:41;;;;;;;22.00;15.55;;;;;;;;;;5052675;28;20059;-75
2022/11/28 06:53:07;;;;;;;22.35;17.80;;;;;;;;;;5074343;28;20044;-75
2022/11/28 06:55:33;;;;;;;27.17;18.48;;;;;;;;;;5057758;28;20037;-76
2022/11/28 06:57:59;;;;;;;23.80;17.05;;;;;;;;;;5070411;28;20839;-75
2022/11/28 07:00:26;;;;;;;27.55;19.70;;;;;;;;;;5057666;28;20045;-75
2022/11/28 07:02:52;;;;;;;27.55;18.10;;;;;;;;;;5054734;28;20044;-75
2022/11/28 07:05:20;;;;;;;25.35;16.38;;;;;;;;;;5083702;28;20062;-75
2022/11/28 07:07:47;;;;;;;29.25;21.30;;;;;;;;;;5075866;28;20052;-75
2022/11/28 07:10:13;;;;;;;26.83;18.73;;;;;;;;;;5083511;28;20043;-75
2022/11/28 07:12:39;;;;;;;25.02;16.58;;;;;;;;;;5046160;28;20488;-75
2022/11/28 07:15:09;;;;;;;23.58;16.50;;;;;;;;;;5064596;28;20093;-75
2022/11/28 07:17:35;;;;;;;23.63;16.02;;;;;;;;;;5078574;28;20048;-75
2022/11/28 07:20:01;;;;;;;27.65;16.35;;;;;;;;;;5068477;28;20036;-76
2022/11/28 07:22:27;;;;;;;27.52;17.50;;;;;;;;;;5072859;28;20127;-76
2022/11/28 07:24:53;;;;;;;26.65;16.75;;;;;;;;;;5060634;28;20396;-76
2022/11/28 07:27:19;;;;;;;26.35;18.70;;;;;;;;;;5068432;28;20049;-76
2022/11/28 07:29:45;;;;;;;25.85;17.00;;;;;;;;;;5049333;28;20048;-76
2022/11/28 07:32:11;;;;;;;24.88;17.23;;;;;;;;;;5063662;28;20044;-76
2022/11/28 07:34:37;;;;;;;29.70;19.25;;;;;;;;;;5073316;28;20097;-75
2022/11/28 07:37:03;;;;;;;27.00;17.67;;;;;;;;;;5073783;28;20462;-75
2022/11/28 07:39:29;;;;;;;24.70;17.48;;;;;;;;;;5084232;28;20087;-76
2022/11/28 07:41:55;;;;;;;26.65;17.50;;;;;;;;;;5042383;28;20055;-76
2022/11/28 07:44:21;;;;;;;27.42;19.60;;;;;;;;;;5045435;28;20048;-77
2022/11/28 07:46:47;;;;;;;30.92;20.20;;;;;;;;;;5086420;28;20059;-76
2022/11/28 07:49:13;;;;;;;27.83;18.67;;;;;;;;;;5080710;28;20040;-76
2022/11/28 07:51:40;;;;;;;25.52;17.40;;;;;;;;;;5048370;28;20096;-76
2022/11/28 07:54:06;;;;;;;28.67;18.00;;;;;;;;;;5067228;28;20072;-76
2022/11/28 07:56:34;;;;;;;29.48;18.65;;;;;;;;;;5082927;28;20090;-77
2022/11/28 07:59:00;;;;;;;30.98;19.08;;;;;;;;;;5055910;28;20476;-76
2022/11/28 08:01:28;;;;;;;28.48;17.35;;;;;;;;;;5050046;28;20028;-77
2022/11/28 08:03:57;;;;;;;31.30;19.88;;;;;;;;;;5089591;28;20479;-76
2022/11/28 08:06:24;;;;;;;27.63;19.35;;;;;;;;;;5063999;28;20541;-76
2022/11/28 08:08:53;;;;;;;28.45;19.55;;;;;;;;;;5055018;28;20074;-77
2022/11/28 08:11:20;;;;;;;30.70;20.05;;;;;;;;;;5065976;28;20040;-76
2022/11/28 08:13:46;;;;;;;32.38;19.40;;;;;;;;;;5067760;28;20044;-76
2022/11/28 08:16:17;;;;;;;30.48;19.85;;;;;;;;;;5050455;28;20445;-76
2022/11/28 08:18:43;;;;;;;28.50;18.17;;;;;;;;;;5054175;28;20056;-76
2022/11/28 08:21:11;;;;;;;28.90;18.35;;;;;;;;;;5058736;28;20078;-77
2022/11/28 08:23:37;;;;;;;30.08;18.58;;;;;;;;;;5054214;28;20056;-78
2022/11/28 08:26:04;;;;;;;30.20;19.40;;;;;;;;;;5086047;28;20048;-78
2022/11/28 08:28:30;;;;;;;33.63;19.52;;;;;;;;;;5051648;28;20048;-77
2022/11/28 08:30:58;;;;;;;29.63;18.90;;;;;;;;;;5053328;28;20047;-77
2022/11/28 08:33:24;;;;;;;23.85;17.17;;;;;;;;;;5085615;28;20048;-77
2022/11/28 08:35:51;;;;;;;26.95;18.35;;;;;;;;;;5070861;28;20051;-77
2022/11/28 08:38:17;;;;;;;27.52;17.55;;;;;;;;;;5052581;28;20053;-77
2022/11/28 08:40:43;;;;;;;26.80;17.23;;;;;;;;;;5052527;28;20056;-77
2022/11/28 08:43:09;;;;;;;25.67;15.95;;;;;;;;;;5049867;28;20057;-77
2022/11/28 08:45:38;;;;;;;29.27;16.20;;;;;;;;;;5087265;28;20484;-78
2022/11/28 08:48:05;;;;;;;29.48;17.70;;;;;;;;;;5068971;28;20127;-77
2022/11/28 08:50:31;;;;;;;29.10;16.70;;;;;;;;;;5070308;28;20044;-77
2022/11/28 08:52:57;;;;;;;27.52;17.15;;;;;;;;;;5070277;28;20040;-77
2022/11/28 08:55:23;;;;;;;29.13;17.85;;;;;;;;;;5071610;28;20105;-77
2022/11/28 08:57:49;;;;;;;26.02;17.13;;;;;;;;;;5052271;28;20479;-78
2022/11/28 09:00:15;;;;;;;25.63;17.45;;;;;;;;;;5049815;28;20090;-77
2022/11/28 09:02:41;;;;;;;28.42;16.75;;;;;;;;;;5069318;28;20132;-77
2022/11/28 09:05:07;;;;;;;30.58;17.05;;;;;;;;;;5050226;28;20123;-77
2022/11/28 09:07:33;;;;;;;29.40;16.30;;;;;;;;;;5052302;28;20438;-78
2022/11/28 09:09:59;;;;;;;25.33;16.05;;;;;;;;;;5067670;28;20041;-77
2022/11/28 09:12:25;;;;;;;27.30;16.75;;;;;;;;;;5086431;28;20048;-78
2022/11/28 09:14:51;;;;;;;30.02;17.33;;;;;;;;;;5069749;28;20507;-77
2022/11/28 09:17:17;;;;;;;28.67;17.70;;;;;;;;;;5069869;28;20171;-77
2022/11/28 09:19:43;;;;;;;28.17;17.00;;;;;;;;;;5052459;28;20544;-77
2022/11/28 09:22:09;;;;;;;30.73;18.45;;;;;;;;;;5052670;28;20098;-77
2022/11/28 09:24:35;;;;;;;32.95;19.27;;;;;;;;;;5050339;28;20128;-78
2022/11/28 09:27:02;;;;;;;34.92;20.08;;;;;;;;;;5081313;28;20127;-77
2022/11/28 09:29:28;;;;;;;35.10;21.80;;;;;;;;;;5089513;28;20063;-78
2022/11/28 09:31:57;;;;;;;37.67;21.15;;;;;;;;;;5055965;28;20044;-77
2022/11/28 09:34:26;;;;;;;35.63;20.63;;;;;;;;;;5055026;28;20474;-77
2022/11/28 09:36:52;;;;;;;34.28;20.67;;;;;;;;;;5055874;28;20048;-77
2022/11/28 09:39:18;;;;;;;37.63;21.13;;;;;;;;;;5072065;28;20051;-78
2022/11/28 09:41:57;;;;;;;32.83;19.80;;;;;;;;;;5074172;28;20056;-78
2022/11/28 09:44:23;;;;;;;30.58;19.23;;;;;;;;;;5055903;28;20123;-77
2022/11/28 09:46:51;;;;;;;31.88;18.83;;;;;;;;;;5054042;28;20127;-77
2022/11/28 09:49:32;;;;;;;32.40;17.92;;;;;;;;;;5062774;28;20060;-77
2022/11/28 09:52:02;;;;;;;47.13;28.30;;;;;;;;;;5055916;28;20048;-77
2022/11/28 09:54:42;;;;;;;32.03;20.50;;;;;;;;;;5055048;28;20047;-77
2022/11/28 09:57:12;;;;;;;29.90;19.33;;;;;;;;;;5055094;28;20053;-77
2022/11/28 09:59:38;;;;;;;33.10;19.50;;;;;;;;;;5053368;28;20506;-77
2022/11/28 10:02:07;;;;;;;33.38;20.40;;;;;;;;;;5054067;28;20378;-77
2022/11/28 10:04:48;;;;;;;34.08;21.13;;;;;;;;;;5055698;28;20075;-77
2022/11/28 10:07:17;;;;;;;33.15;21.77;;;;;;;;;;5061895;28;20515;-77
2022/11/28 10:09:53;;;;;;;34.90;24.20;;;;;;;;;;5073761;28;20033;-77
2022/11/28 10:12:37;;;;;;;32.42;21.73;;;;;;;;;;5079726;28;20051;-77
2022/11/28 10:15:03;;;;;;;33.72;23.30;;;;;;;;;;5050285;28;20467;-77
2022/11/28 10:17:29;;;;;;;34.08;22.58;;;;;;;;;;5054864;28;20060;-78
2022/11/28 10:20:02;;;;;;;31.95;22.52;;;;;;;;;;5082960;28;20080;-77
2022/11/28 10:22:38;;;;;;;34.95;21.95;;;;;;;;;;5039024;28;20044;-78
2022/11/28 10:25:08;;;;;;;31.98;20.80;;;;;;;;;;5070825;28;20052;-78
2022/11/28 10:27:35;;;;;;;29.10;19.90;;;;;;;;;;5088207;28;20041;-78
2022/11/28 10:30:01;;;;;;;33.80;21.52;;;;;;;;;;5054489;28;20101;-77
2022/11/28 10:32:38;;;;;;;33.53;21.20;;;;;;;;;;5054926;28;20190;-77
2022/11/28 10:35:23;;;;;;;35.13;21.50;;;;;;;;;;5053336;28;20093;-77
2022/11/28 10:37:50;;;;;;;29.77;20.38;;;;;;;;;;5071913;28;20048;-77
2022/11/28 10:40:20;;;;;;;33.17;21.55;;;;;;;;;;5068770;28;20131;-77
2022/11/28 10:42:46;;;;;;;35.05;21.17;;;;;;;;;;5074252;28;20087;-77
2022/11/28 10:45:26;;;;;;;33.28;21.08;;;;;;;;;;5077685;28;20080;-77
2022/11/28 10:48:04;;;;;;;36.90;21.13;;;;;;;;;;5054807;28;20043;-77
2022/11/28 10:50:39;;;;;;;37.47;22.95;;;;;;;;;;5052887;28;20106;-77
2022/11/28 10:53:08;;;;;;;50.50;26.13;;;;;;;;;;5054918;28;20549;-77
2022/11/28 10:55:53;;;;;;;46.80;23.30;;;;;;;;;;5072440;28;20127;-77
2022/11/28 10:58:26;;;;;;;40.45;23.00;;;;;;;;;;5055487;28;20098;-77
2022/11/28 11:00:53;;;;;;;37.75;22.17;;;;;;;;;;5055138;28;20078;-77
2022/11/28 11:03:22;;;;;;;40.97;22.15;;;;;;;;;;5050584;28;20060;-77
2022/11/28 11:05:48;;;;;;;38.50;23.13;;;;;;;;;;5071524;28;20044;-77
2022/11/28 11:08:18;;;;;;;40.53;24.08;;;;;;;;;;5051700;28;20041;-78
2022/11/28 11:10:50;;;;;;;40.88;22.13;;;;;;;;;;5085145;28;20158;-77
2022/11/28 11:13:18;;;;;;;42.95;22.58;;;;;;;;;;5050862;28;20056;-77
2022/11/28 11:15:46;;;;;;;37.50;23.75;;;;;;;;;;5071160;28;20056;-77
2022/11/28 11:18:23;;;;;;;36.95;23.27;;;;;;;;;;5051386;28;20151;-77
2022/11/28 11:20:49;;;;;;;34.78;21.25;;;;;;;;;;5058178;28;20040;-77
2022/11/28 11:23:15;;;;;;;42.20;24.05;;;;;;;;;;5082421;28;20052;-77
2022/11/28 11:25:45;;;;;;;47.72;23.73;;;;;;;;;;5068088;28;20044;-78
2022/11/28 11:28:25;;;;;;;43.53;23.02;;;;;;;;;;5049753;28;20446;-77
2022/11/28 11:30:58;;;;;;;41.92;24.70;;;;;;;;;;5052501;28;20044;-77
2022/11/28 11:33:26;;;;;;;42.50;23.27;;;;;;;;;;5070906;28;20111;-77
2022/11/28 11:35:52;;;;;;;44.95;23.08;;;;;;;;;;5053205;28;20064;-76
2022/11/28 11:38:27;;;;;;;45.88;24.63;;;;;;;;;;5070336;28;20036;-77
2022/11/28 11:40:53;;;;;;;43.53;23.27;;;;;;;;;;5055497;28;20052;-76
2022/11/28 11:43:22;;;;;;;47.35;22.67;;;;;;;;;;5052844;28;20127;-77
2022/11/28 11:46:03;;;;;;;45.92;24.45;;;;;;;;;;5085516;28;20059;-76
2022/11/28 11:48:55;;;;;;;40.47;23.58;;;;;;;;;;5070306;28;20048;-77
2022/11/28 11:51:25;;;;;;;49.47;24.92;;;;;;;;;;5064291;28;20102;-77
2022/11/28 11:54:05;;;;;;;45.47;23.85;;;;;;;;;;5048218;28;20076;-77
2022/11/28 11:56:35;;;;;;;44.72;23.02;;;;;;;;;;5068094;28;20125;-77
2022/11/28 11:59:02;;;;;;;56.05;26.20;;;;;;;;;;5044413;28;20472;-76
2022/11/28 12:01:31;;;;;;;51.10;25.75;;;;;;;;;;5052877;28;20092;-77
2022/11/28 12:04:08;;;;;;;49.92;23.98;;;;;;;;;;5063419;28;20044;-76
2022/11/28 12:06:38;;;;;;;48.72;25.30;;;;;;;;;;5067727;28;20403;-77
2022/11/28 12:09:07;;;;;;;48.28;24.23;;;;;;;;;;5071147;28;20059;-76
2022/11/28 12:11:35;;;;;;;43.75;23.02;;;;;;;;;;5070605;28;20037;-77
2022/11/28 12:14:17;;;;;;;54.05;24.73;;;;;;;;;;5051312;28;20044;-76
2022/11/28 12:17:06;;;;;;;45.55;24.90;;;;;;;;;;5070649;28;20059;-77
2022/11/28 12:19:46;;;;;;;45.08;24.52;;;;;;;;;;5061385;28;20040;-77
2022/11/28 12:22:18;;;;;;;46.40;24.20;;;;;;;;;;5046570;28;20048;-77
2022/11/28 12:24:44;;;;;;;50.13;25.60;;;;;;;;;;5050610;28;20500;-77
2022/11/28 12:27:28;;;;;;;49.33;29.70;;;;;;;;;;5051143;28;20041;-77
2022/11/28 12:30:17;;;;;;;52.17;26.35;;;;;;;;;;5066364;28;20059;-77
2022/11/28 12:33:02;;;;;;;47.45;23.23;;;;;;;;;;5023617;28;20056;-77
2022/11/28 12:35:39;;;;;;;43.13;24.02;;;;;;;;;;5047487;28;20044;-77
2022/11/28 12:38:30;;;;;;;37.53;22.08;;;;;;;;;;5047988;28;20055;-77
2022/11/28 12:41:08;;;;;;;48.85;23.73;;;;;;;;;;5042537;28;20041;-76
2022/11/28 12:43:41;;;;;;;46.45;22.05;;;;;;;;;;5049394;28;20044;-77
2022/11/28 12:46:17;;;;;;;41.25;20.30;;;;;;;;;;5068869;28;20044;-77
2022/11/28 12:48:49;;;;;;;43.05;20.95;;;;;;;;;;5051266;28;20569;-76
2022/11/28 12:51:15;;;;;;;51.22;22.95;;;;;;;;;;5048833;28;20128;-74
2022/11/28 12:53:57;;;;;;;37.72;20.95;;;;;;;;;;5053151;28;20052;-76
2022/11/28 12:56:44;;;;;;;50.67;21.73;;;;;;;;;;5070006;28;20041;-76
2022/11/28 12:59:26;;;;;;;47.47;22.85;;;;;;;;;;5053217;28;20488;-76
2022/11/28 13:02:11;;;;;;;50.05;23.67;;;;;;;;;;5041520;28;20055;-77
2022/11/28 13:04:52;;;;;;;75.43;31.33;;;;;;;;;;5054072;28;20052;-77
2022/11/28 13:07:18;;;;;;;55.53;23.15;;;;;;;;;;5085657;28;20040;-77
2022/11/28 13:10:03;;;;;;;65.80;24.45;;;;;;;;;;5086639;28;20420;-77
2022/11/28 13:12:45;;;;;;;56.35;24.20;;;;;;;;;;5050725;28;20488;-77
2022/11/28 13:15:27;;;;;;;47.57;21.53;;;;;;;;;;5070361;28;20040;-77
2022/11/28 13:17:58;;;;;;;49.88;22.00;;;;;;;;;;5069727;28;20040;-76
2022/11/28 13:20:41;;;;;;;54.83;23.20;;;;;;;;;;5073150;28;20106;-76
2022/11/28 13:23:10;;;;;;;63.10;24.65;;;;;;;;;;5070073;28;20036;-77
2022/11/28 13:25:55;;;;;;;78.68;24.30;;;;;;;;;;5053500;28;20110;-77
2022/11/28 13:28:41;;;;;;;66.25;23.48;;;;;;;;;;5048573;28;20377;-76
2022/11/28 13:31:12;;;;;;;65.53;25.75;;;;;;;;;;5050334;28;20053;-76
2022/11/28 13:33:51;;;;;;;77.13;23.38;;;;;;;;;;5052948;28;20503;-76
2022/11/28 13:36:33;;;;;;;59.42;24.38;;;;;;;;;;5053469;28;20048;-77
2022/11/28 13:39:02;;;;;;;81.40;25.67;;;;;;;;;;5071475;28;20075;-76
2022/11/28 13:41:40;;;;;;;74.45;24.90;;;;;;;;;;5053070;28;20146;-77
2022/11/28 13:44:14;;;;;;;85.05;26.10;;;;;;;;;;5054023;28;20131;-76
2022/11/28 13:46:40;;;;;;;110.32;26.73;;;;;;;;;;5052661;28;20123;-76
2022/11/28 13:49:18;;;;;;;85.65;27.25;;;;;;;;;;5053806;28;20480;-76
2022/11/28 13:51:44;;;;;;;91.82;26.10;;;;;;;;;;5069367;28;20047;-76
2022/11/28 13:54:19;;;;;;;55.92;24.52;;;;;;;;;;5071400;28;20094;-76
2022/11/28 13:56:46;;;;;;;72.47;24.88;;;;;;;;;;5072181;28;20104;-76
2022/11/28 13:59:20;;;;;;;53.63;24.95;;;;;;;;;;5070239;28;20056;-76
2022/11/28 14:01:48;;;;;;;69.15;24.27;;;;;;;;;;5070331;28;20057;-76
2022/11/28 14:04:16;;;;;;;65.85;24.52;;;;;;;;;;5052323;28;20086;-76
2022/11/28 14:06:44;;;;;;;77.25;27.92;;;;;;;;;;5068720;28;20048;-77
2022/11/28 14:09:16;;;;;;;65.22;24.80;;;;;;;;;;5053521;28;20041;-76
2022/11/28 14:12:00;;;;;;;70.30;25.45;;;;;;;;;;5080233;28;20555;-76
2022/11/28 14:14:39;;;;;;;58.78;24.48;;;;;;;;;;5048390;28;20150;-76
2022/11/28 14:17:11;;;;;;;58.72;26.25;;;;;;;;;;5053562;28;20045;-75
2022/11/28 14:19:37;;;;;;;73.45;25.50;;;;;;;;;;5065691;28;20109;-75
2022/11/28 14:22:03;;;;;;;75.55;25.52;;;;;;;;;;5050698;28;20041;-75
2022/11/28 14:24:32;;;;;;;59.22;26.00;;;;;;;;;;5060359;28;20376;-75
2022/11/28 14:27:03;;;;;;;61.80;26.17;;;;;;;;;;5088230;28;20105;-75
2022/11/28 14:29:38;;;;;;;68.28;29.25;;;;;;;;;;5062032;28;20060;-76
2022/11/28 14:32:05;;;;;;;66.45;26.13;;;;;;;;;;5079440;28;20054;-75